WTB17G TNCM-MDSD
Flight info
| Callsign | WTB17G |
|---|---|
| Flight time | 1h 8m |
| Altitude | 34000 |
| Route | BOPAT2 GOUDA L577 GOSUB GOSUB2G |
| Aircraft | B738/M-SDE2E3FGHIRWXY/LB1 |
Departure
| Time | 2026-05-04 18:36 |
|---|---|
| Airport | Princess Juliana International Airport (TNCM) |
Arrival
| Time | 2026-05-04 19:45 |
|---|---|
| Airport | Las Américas International Airport (MDSD) |
| Time | Latitude | Longitude | Altitude | Speed | Heading |
|---|---|---|---|---|---|
| 2026-05-04 17:29 | 18.04340 | -63.11294 | 47 ft | 0 kts | 352° |
| 2026-05-04 18:26 | 18.04321 | -63.11291 | 21 ft | 4 kts | 355° |
| 2026-05-04 18:26 | 18.04294 | -63.11289 | 22 ft | 4 kts | 353° |
| 2026-05-04 18:26 | 18.04271 | -63.11283 | 23 ft | 4 kts | 307° |
| 2026-05-04 18:27 | 18.04268 | -63.11279 | 20 ft | 1 kts | 241° |
| 2026-05-04 18:27 | 18.04270 | -63.11276 | 20 ft | 0 kts | 241° |
| 2026-05-04 18:30 | 18.04225 | -63.11307 | 20 ft | 10 kts | 188° |
| 2026-05-04 18:30 | 18.04159 | -63.11298 | 20 ft | 9 kts | 170° |
| 2026-05-04 18:30 | 18.04128 | -63.11292 | 21 ft | 0 kts | 169° |
| 2026-05-04 18:32 | 18.04127 | -63.11292 | 21 ft | 0 kts | 169° |
| 2026-05-04 18:32 | 18.04126 | -63.11292 | 20 ft | 0 kts | 169° |
| 2026-05-04 18:33 | 18.04076 | -63.11283 | 20 ft | 17 kts | 178° |
| 2026-05-04 18:34 | 18.04022 | -63.11384 | 21 ft | 20 kts | 260° |
| 2026-05-04 18:34 | 18.03993 | -63.11574 | 20 ft | 25 kts | 260° |
| 2026-05-04 18:34 | 18.03968 | -63.11750 | 21 ft | 24 kts | 262° |
| 2026-05-04 18:34 | 18.03983 | -63.11907 | 23 ft | 20 kts | 289° |
| 2026-05-04 18:35 | 18.03951 | -63.11957 | 21 ft | 9 kts | 141° |
| 2026-05-04 18:35 | 18.03952 | -63.11894 | 21 ft | 2 kts | 78° |
| 2026-05-04 18:36 | 18.03963 | -63.11838 | 21 ft | 36 kts | 79° |
| 2026-05-04 18:36 | 18.04040 | -63.11279 | 19 ft | 116 kts | 82° |
| 2026-05-04 18:36 | 18.04189 | -63.10220 | 231 ft | 161 kts | 85° |
| 2026-05-04 18:36 | 18.04292 | -63.09127 | 1315 ft | 145 kts | 98° |
| 2026-05-04 18:37 | 18.04068 | -63.08460 | 1781 ft | 151 kts | 126° |
| 2026-05-04 18:37 | 18.03183 | -63.07884 | 2511 ft | 157 kts | 161° |
| 2026-05-04 18:37 | 18.02050 | -63.07630 | 2820 ft | 180 kts | 165° |
| 2026-05-04 18:37 | 18.00748 | -63.07354 | 3053 ft | 205 kts | 165° |
| 2026-05-04 18:38 | 17.99273 | -63.07048 | 3329 ft | 225 kts | 165° |
| 2026-05-04 18:38 | 17.97691 | -63.06754 | 3775 ft | 236 kts | 174° |
| 2026-05-04 18:38 | 17.96091 | -63.07224 | 4315 ft | 251 kts | 211° |
| 2026-05-04 18:38 | 17.94932 | -63.08697 | 4604 ft | 278 kts | 247° |
| 2026-05-04 18:39 | 17.94759 | -63.10745 | 5239 ft | 290 kts | 282° |
| 2026-05-04 18:39 | 17.95183 | -63.12815 | 6123 ft | 290 kts | 275° |
| 2026-05-04 18:39 | 17.95320 | -63.14942 | 6847 ft | 294 kts | 269° |
| 2026-05-04 18:39 | 17.95326 | -63.17086 | 7663 ft | 294 kts | 267° |
| 2026-05-04 18:40 | 17.95282 | -63.19238 | 8433 ft | 297 kts | 266° |
| 2026-05-04 18:40 | 17.95216 | -63.21416 | 9204 ft | 298 kts | 266° |
| 2026-05-04 18:40 | 17.95141 | -63.23572 | 10137 ft | 294 kts | 266° |
| 2026-05-04 18:40 | 17.95060 | -63.25762 | 10600 ft | 310 kts | 266° |
| 2026-05-04 18:41 | 17.94972 | -63.28114 | 10760 ft | 333 kts | 266° |
| 2026-05-04 18:41 | 17.94876 | -63.30587 | 10906 ft | 354 kts | 266° |
| 2026-05-04 18:41 | 17.94771 | -63.33227 | 11224 ft | 367 kts | 266° |
| 2026-05-04 18:41 | 17.94660 | -63.35960 | 11772 ft | 372 kts | 266° |
| 2026-05-04 18:42 | 17.94554 | -63.38646 | 12376 ft | 374 kts | 266° |
| 2026-05-04 18:42 | 17.94445 | -63.41387 | 12968 ft | 377 kts | 266° |
| 2026-05-04 18:42 | 17.94333 | -63.44158 | 13550 ft | 381 kts | 266° |
| 2026-05-04 18:42 | 17.94219 | -63.46956 | 14068 ft | 385 kts | 266° |
| 2026-05-04 18:43 | 17.94104 | -63.49759 | 14629 ft | 385 kts | 267° |
| 2026-05-04 18:43 | 17.93988 | -63.52569 | 14993 ft | 385 kts | 267° |
| 2026-05-04 18:43 | 17.93872 | -63.55373 | 15033 ft | 386 kts | 267° |
| 2026-05-04 18:43 | 17.93755 | -63.58212 | 15449 ft | 389 kts | 267° |
| 2026-05-04 18:44 | 17.93637 | -63.61043 | 16136 ft | 386 kts | 268° |
| 2026-05-04 18:44 | 17.93559 | -63.62901 | 16595 ft | 384 kts | 268° |
| 2026-05-04 18:44 | 17.93476 | -63.66661 | 17309 ft | 387 kts | 273° |
| 2026-05-04 18:44 | 17.93834 | -63.69477 | 17826 ft | 389 kts | 281° |
| 2026-05-04 18:45 | 17.94359 | -63.72258 | 18361 ft | 390 kts | 282° |
| 2026-05-04 18:45 | 17.94910 | -63.75059 | 18730 ft | 394 kts | 282° |
| 2026-05-04 18:45 | 17.95468 | -63.77890 | 19108 ft | 397 kts | 282° |
| 2026-05-04 18:45 | 17.96025 | -63.80743 | 19494 ft | 401 kts | 282° |
| 2026-05-04 18:46 | 17.96581 | -63.83631 | 19811 ft | 406 kts | 281° |
| 2026-05-04 18:46 | 17.97137 | -63.86550 | 20174 ft | 409 kts | 281° |
| 2026-05-04 18:46 | 17.97694 | -63.89494 | 20523 ft | 413 kts | 281° |
| 2026-05-04 18:46 | 17.98254 | -63.92469 | 20860 ft | 417 kts | 281° |
| 2026-05-04 18:47 | 17.98817 | -63.95471 | 21200 ft | 421 kts | 281° |
| 2026-05-04 18:47 | 17.99385 | -63.98506 | 21530 ft | 425 kts | 281° |
| 2026-05-04 18:47 | 17.99958 | -64.01570 | 21860 ft | 429 kts | 281° |
| 2026-05-04 18:47 | 18.00534 | -64.04652 | 22181 ft | 432 kts | 281° |
| 2026-05-04 18:48 | 18.01115 | -64.07764 | 22504 ft | 436 kts | 281° |
| 2026-05-04 18:48 | 18.01693 | -64.10860 | 22811 ft | 439 kts | 281° |
| 2026-05-04 18:48 | 18.02283 | -64.14022 | 23128 ft | 443 kts | 281° |
| 2026-05-04 18:48 | 18.02875 | -64.17204 | 23409 ft | 446 kts | 281° |
| 2026-05-04 18:49 | 18.03473 | -64.20418 | 23689 ft | 450 kts | 281° |
| 2026-05-04 18:49 | 18.04074 | -64.23649 | 24019 ft | 450 kts | 281° |
| 2026-05-04 18:49 | 18.04674 | -64.26877 | 24375 ft | 450 kts | 281° |
| 2026-05-04 18:49 | 18.05273 | -64.30106 | 24700 ft | 451 kts | 282° |
| 2026-05-04 18:50 | 18.05873 | -64.33342 | 25009 ft | 452 kts | 282° |
| 2026-05-04 18:50 | 18.06475 | -64.36593 | 25281 ft | 453 kts | 282° |
| 2026-05-04 18:50 | 18.07076 | -64.39842 | 25591 ft | 454 kts | 282° |
| 2026-05-04 18:50 | 18.07678 | -64.43099 | 25919 ft | 454 kts | 282° |
| 2026-05-04 18:51 | 18.08281 | -64.46360 | 26217 ft | 455 kts | 282° |
| 2026-05-04 18:51 | 18.08884 | -64.49631 | 26489 ft | 456 kts | 282° |
| 2026-05-04 18:51 | 18.09487 | -64.52903 | 26776 ft | 457 kts | 282° |
| 2026-05-04 18:51 | 18.10091 | -64.56188 | 27037 ft | 458 kts | 282° |
| 2026-05-04 18:52 | 18.10697 | -64.59482 | 27287 ft | 459 kts | 282° |
| 2026-05-04 18:52 | 18.11304 | -64.62784 | 27553 ft | 460 kts | 282° |
| 2026-05-04 18:52 | 18.11903 | -64.66047 | 27807 ft | 461 kts | 282° |
| 2026-05-04 18:52 | 18.12517 | -64.69397 | 28075 ft | 462 kts | 282° |
| 2026-05-04 18:53 | 18.13125 | -64.72716 | 28305 ft | 463 kts | 282° |
| 2026-05-04 18:53 | 18.13735 | -64.76047 | 28540 ft | 464 kts | 282° |
| 2026-05-04 18:53 | 18.14335 | -64.79329 | 28910 ft | 462 kts | 282° |
| 2026-05-04 18:53 | 18.14939 | -64.82635 | 29366 ft | 458 kts | 282° |
| 2026-05-04 18:54 | 18.15537 | -64.85914 | 29647 ft | 459 kts | 282° |
| 2026-05-04 18:54 | 18.16140 | -64.89225 | 29762 ft | 463 kts | 282° |
| 2026-05-04 18:54 | 18.16749 | -64.92562 | 29886 ft | 466 kts | 282° |
| 2026-05-04 18:54 | 18.17360 | -64.95920 | 30068 ft | 468 kts | 282° |
| 2026-05-04 18:55 | 18.17923 | -64.99282 | 30332 ft | 467 kts | 279° |
| 2026-05-04 18:55 | 18.18707 | -65.06034 | 30922 ft | 464 kts | 277° |
| 2026-05-04 18:55 | 18.19037 | -65.09415 | 31162 ft | 464 kts | 277° |
| 2026-05-04 18:56 | 18.19364 | -65.12786 | 31415 ft | 463 kts | 277° |
| 2026-05-04 18:56 | 18.19698 | -65.16151 | 31691 ft | 462 kts | 277° |
| 2026-05-04 18:56 | 18.20039 | -65.19501 | 31962 ft | 461 kts | 277° |
| 2026-05-04 18:56 | 18.20383 | -65.22805 | 32241 ft | 460 kts | 277° |
| 2026-05-04 18:57 | 18.20736 | -65.26149 | 32494 ft | 459 kts | 277° |
| 2026-05-04 18:57 | 18.21081 | -65.29395 | 32750 ft | 459 kts | 277° |
| 2026-05-04 18:57 | 18.21431 | -65.32678 | 33015 ft | 458 kts | 277° |
| 2026-05-04 18:57 | 18.21784 | -65.36000 | 33286 ft | 457 kts | 277° |
| 2026-05-04 18:58 | 18.22137 | -65.39324 | 33556 ft | 456 kts | 277° |
| 2026-05-04 18:58 | 18.22487 | -65.42628 | 33838 ft | 455 kts | 276° |
| 2026-05-04 18:58 | 18.22835 | -65.45927 | 34056 ft | 453 kts | 276° |
| 2026-05-04 18:58 | 18.23183 | -65.49230 | 34044 ft | 455 kts | 276° |
| 2026-05-04 18:59 | 18.23883 | -65.55890 | 34055 ft | 455 kts | 276° |
| 2026-05-04 18:59 | 18.24571 | -65.62458 | 34057 ft | 454 kts | 276° |
| 2026-05-04 19:00 | 18.25259 | -65.69046 | 34057 ft | 452 kts | 276° |
| 2026-05-04 19:00 | 18.25942 | -65.75620 | 34050 ft | 451 kts | 276° |
| 2026-05-04 19:01 | 18.26621 | -65.82168 | 34042 ft | 450 kts | 276° |
| 2026-05-04 19:01 | 18.27298 | -65.88717 | 34050 ft | 450 kts | 276° |
| 2026-05-04 19:02 | 18.27972 | -65.95264 | 34042 ft | 450 kts | 276° |
| 2026-05-04 19:02 | 18.28645 | -66.01820 | 34038 ft | 450 kts | 276° |
| 2026-05-04 19:03 | 18.29314 | -66.08367 | 34028 ft | 451 kts | 276° |
| 2026-05-04 19:03 | 18.29980 | -66.14892 | 34032 ft | 451 kts | 276° |
| 2026-05-04 19:04 | 18.30647 | -66.21464 | 34034 ft | 452 kts | 276° |
| 2026-05-04 19:04 | 18.31314 | -66.28054 | 34034 ft | 452 kts | 275° |
| 2026-05-04 19:05 | 18.31967 | -66.34527 | 34015 ft | 437 kts | 275° |
| 2026-05-04 19:05 | 18.32604 | -66.40863 | 34021 ft | 433 kts | 275° |
| 2026-05-04 19:06 | 18.33233 | -66.47133 | 34022 ft | 428 kts | 275° |
| 2026-05-04 19:06 | 18.33852 | -66.53340 | 34028 ft | 426 kts | 275° |
| 2026-05-04 19:07 | 18.34466 | -66.59509 | 34041 ft | 428 kts | 275° |
| 2026-05-04 19:07 | 18.35089 | -66.65786 | 34042 ft | 434 kts | 275° |
| 2026-05-04 19:08 | 18.35697 | -66.71945 | 34030 ft | 437 kts | 275° |
| 2026-05-04 19:08 | 18.36319 | -66.78254 | 34032 ft | 438 kts | 275° |
| 2026-05-04 19:09 | 18.36947 | -66.84647 | 34034 ft | 439 kts | 275° |
| 2026-05-04 19:09 | 18.37573 | -66.91039 | 34022 ft | 439 kts | 275° |
| 2026-05-04 19:10 | 18.38188 | -66.97337 | 34027 ft | 431 kts | 275° |
| 2026-05-04 19:10 | 18.38797 | -67.03609 | 34040 ft | 431 kts | 275° |
| 2026-05-04 19:11 | 18.39405 | -67.09893 | 34042 ft | 432 kts | 275° |
| 2026-05-04 19:11 | 18.40013 | -67.16188 | 34030 ft | 432 kts | 275° |
| 2026-05-04 19:12 | 18.40921 | -67.25632 | 34029 ft | 433 kts | 275° |
| 2026-05-04 19:13 | 18.41524 | -67.31937 | 34034 ft | 433 kts | 275° |
| 2026-05-04 19:13 | 18.42125 | -67.38246 | 34028 ft | 433 kts | 275° |
| 2026-05-04 19:14 | 18.42726 | -67.44571 | 34020 ft | 434 kts | 275° |
| 2026-05-04 19:14 | 18.43325 | -67.50894 | 34019 ft | 434 kts | 275° |
| 2026-05-04 19:15 | 18.43923 | -67.57241 | 33617 ft | 440 kts | 275° |
| 2026-05-04 19:15 | 18.44220 | -67.60406 | 33103 ft | 438 kts | 275° |
| 2026-05-04 19:15 | 18.44520 | -67.63602 | 32503 ft | 439 kts | 275° |
| 2026-05-04 19:15 | 18.44819 | -67.66797 | 31905 ft | 439 kts | 276° |
| 2026-05-04 19:16 | 18.45119 | -67.70000 | 31293 ft | 440 kts | 276° |
| 2026-05-04 19:16 | 18.45420 | -67.73215 | 30642 ft | 442 kts | 276° |
| 2026-05-04 19:16 | 18.45720 | -67.76437 | 29952 ft | 444 kts | 276° |
| 2026-05-04 19:16 | 18.46021 | -67.79670 | 29252 ft | 442 kts | 276° |
| 2026-05-04 19:17 | 18.46319 | -67.82877 | 28745 ft | 437 kts | 276° |
| 2026-05-04 19:17 | 18.46613 | -67.86048 | 28215 ft | 430 kts | 276° |
| 2026-05-04 19:17 | 18.46899 | -67.89135 | 27722 ft | 420 kts | 276° |
| 2026-05-04 19:17 | 18.47181 | -67.92188 | 27256 ft | 417 kts | 275° |
| 2026-05-04 19:18 | 18.47461 | -67.95219 | 26785 ft | 414 kts | 275° |
| 2026-05-04 19:18 | 18.47738 | -67.98228 | 26369 ft | 410 kts | 275° |
| 2026-05-04 19:18 | 18.47923 | -68.01196 | 26142 ft | 402 kts | 269° |
| 2026-05-04 19:18 | 18.47884 | -68.04140 | 25926 ft | 407 kts | 268° |
| 2026-05-04 19:19 | 18.47808 | -68.07168 | 25713 ft | 418 kts | 268° |
| 2026-05-04 19:19 | 18.47722 | -68.10251 | 25489 ft | 422 kts | 268° |
| 2026-05-04 19:19 | 18.47639 | -68.13336 | 25250 ft | 419 kts | 268° |
| 2026-05-04 19:19 | 18.47563 | -68.16362 | 25022 ft | 417 kts | 268° |
| 2026-05-04 19:20 | 18.47491 | -68.19410 | 24797 ft | 415 kts | 267° |
| 2026-05-04 19:20 | 18.47423 | -68.22441 | 24574 ft | 413 kts | 267° |
| 2026-05-04 19:20 | 18.47356 | -68.25433 | 24334 ft | 404 kts | 267° |
| 2026-05-04 19:20 | 18.47291 | -68.28392 | 24126 ft | 406 kts | 267° |
| 2026-05-04 19:21 | 18.47224 | -68.31381 | 23912 ft | 410 kts | 267° |
| 2026-05-04 19:21 | 18.47157 | -68.34390 | 23700 ft | 411 kts | 267° |
| 2026-05-04 19:21 | 18.47090 | -68.37391 | 23421 ft | 407 kts | 266° |
| 2026-05-04 19:21 | 18.47024 | -68.40330 | 22994 ft | 394 kts | 267° |
| 2026-05-04 19:22 | 18.46960 | -68.43171 | 22554 ft | 383 kts | 267° |
| 2026-05-04 19:22 | 18.46897 | -68.45934 | 22110 ft | 372 kts | 267° |
| 2026-05-04 19:22 | 18.46835 | -68.48624 | 21687 ft | 364 kts | 267° |
| 2026-05-04 19:22 | 18.46772 | -68.51268 | 21267 ft | 356 kts | 267° |
| 2026-05-04 19:23 | 18.46711 | -68.53855 | 20863 ft | 354 kts | 268° |
| 2026-05-04 19:23 | 18.46648 | -68.56482 | 20473 ft | 365 kts | 268° |
| 2026-05-04 19:23 | 18.46582 | -68.59200 | 20041 ft | 375 kts | 268° |
| 2026-05-04 19:23 | 18.46517 | -68.61920 | 19584 ft | 367 kts | 268° |
| 2026-05-04 19:24 | 18.46454 | -68.64569 | 19156 ft | 357 kts | 268° |
| 2026-05-04 19:24 | 18.46413 | -68.66287 | 18879 ft | 351 kts | 268° |
| 2026-05-04 19:24 | 18.46352 | -68.68818 | 18486 ft | 342 kts | 269° |
| 2026-05-04 19:24 | 18.46292 | -68.71301 | 18056 ft | 336 kts | 269° |
| 2026-05-04 19:25 | 18.46232 | -68.73743 | 17631 ft | 331 kts | 269° |
| 2026-05-04 19:25 | 18.46173 | -68.76158 | 17232 ft | 333 kts | 269° |
| 2026-05-04 19:25 | 18.46111 | -68.78654 | 16827 ft | 350 kts | 269° |
| 2026-05-04 19:25 | 18.46037 | -68.81242 | 16591 ft | 355 kts | 268° |
| 2026-05-04 19:26 | 18.45951 | -68.83823 | 16206 ft | 348 kts | 268° |
| 2026-05-04 19:26 | 18.45863 | -68.86348 | 15527 ft | 346 kts | 268° |
| 2026-05-04 19:26 | 18.45775 | -68.88860 | 14997 ft | 340 kts | 268° |
| 2026-05-04 19:26 | 18.45688 | -68.91337 | 14532 ft | 334 kts | 268° |
| 2026-05-04 19:27 | 18.45606 | -68.93728 | 14104 ft | 329 kts | 267° |
| 2026-05-04 19:27 | 18.45523 | -68.96126 | 13660 ft | 327 kts | 267° |
| 2026-05-04 19:27 | 18.45440 | -68.98513 | 13218 ft | 325 kts | 267° |
| 2026-05-04 19:27 | 18.45356 | -69.00926 | 12801 ft | 336 kts | 267° |
| 2026-05-04 19:28 | 18.45268 | -69.03431 | 12339 ft | 346 kts | 267° |
| 2026-05-04 19:28 | 18.45181 | -69.05945 | 11876 ft | 340 kts | 266° |
| 2026-05-04 19:28 | 18.45096 | -69.08400 | 11461 ft | 331 kts | 266° |
| 2026-05-04 19:28 | 18.44817 | -69.10754 | 11051 ft | 320 kts | 252° |
| 2026-05-04 19:29 | 18.44114 | -69.12956 | 10772 ft | 313 kts | 248° |
| 2026-05-04 19:29 | 18.43385 | -69.15074 | 10632 ft | 303 kts | 248° |
| 2026-05-04 19:29 | 18.42662 | -69.17152 | 10515 ft | 305 kts | 248° |
| 2026-05-04 19:29 | 18.41910 | -69.19296 | 10407 ft | 315 kts | 248° |
| 2026-05-04 19:30 | 18.41161 | -69.21429 | 10263 ft | 303 kts | 248° |
| 2026-05-04 19:30 | 18.40456 | -69.23454 | 10157 ft | 287 kts | 248° |
| 2026-05-04 19:30 | 18.39769 | -69.25438 | 9519 ft | 293 kts | 248° |
| 2026-05-04 19:30 | 18.39086 | -69.27415 | 9342 ft | 284 kts | 248° |
| 2026-05-04 19:31 | 18.38412 | -69.29368 | 8873 ft | 290 kts | 248° |
| 2026-05-04 19:31 | 18.37717 | -69.31377 | 8467 ft | 294 kts | 248° |
| 2026-05-04 19:31 | 18.37012 | -69.33410 | 8032 ft | 298 kts | 248° |
| 2026-05-04 19:31 | 18.36304 | -69.35444 | 7789 ft | 294 kts | 248° |
| 2026-05-04 19:32 | 18.35607 | -69.37451 | 7583 ft | 288 kts | 248° |
| 2026-05-04 19:32 | 18.35157 | -69.39481 | 7347 ft | 286 kts | 269° |
| 2026-05-04 19:32 | 18.35573 | -69.41496 | 7135 ft | 282 kts | 297° |
| 2026-05-04 19:32 | 18.36729 | -69.43090 | 7020 ft | 268 kts | 319° |
| 2026-05-04 19:33 | 18.38270 | -69.44049 | 6975 ft | 253 kts | 346° |
| 2026-05-04 19:33 | 18.39985 | -69.44365 | 6990 ft | 251 kts | 357° |
| 2026-05-04 19:33 | 18.41747 | -69.44517 | 6997 ft | 256 kts | 359° |
| 2026-05-04 19:33 | 18.43531 | -69.44654 | 7003 ft | 257 kts | 358° |
| 2026-05-04 19:34 | 18.45314 | -69.44784 | 6931 ft | 258 kts | 359° |
| 2026-05-04 19:34 | 18.47123 | -69.44918 | 6604 ft | 262 kts | 358° |
| 2026-05-04 19:34 | 18.48931 | -69.45077 | 6279 ft | 261 kts | 358° |
| 2026-05-04 19:34 | 18.50732 | -69.45243 | 6001 ft | 256 kts | 358° |
| 2026-05-04 19:35 | 18.52455 | -69.45407 | 5995 ft | 250 kts | 355° |
| 2026-05-04 19:35 | 18.54044 | -69.46124 | 5978 ft | 253 kts | 315° |
| 2026-05-04 19:35 | 18.54902 | -69.47731 | 5975 ft | 256 kts | 281° |
| 2026-05-04 19:35 | 18.55195 | -69.49594 | 5985 ft | 260 kts | 279° |
| 2026-05-04 19:36 | 18.55774 | -69.51394 | 5986 ft | 259 kts | 293° |
| 2026-05-04 19:36 | 18.56587 | -69.53094 | 5977 ft | 261 kts | 301° |
| 2026-05-04 19:36 | 18.57618 | -69.54661 | 6007 ft | 260 kts | 309° |
| 2026-05-04 19:36 | 18.58844 | -69.56082 | 5986 ft | 262 kts | 316° |
| 2026-05-04 19:37 | 18.60203 | -69.57401 | 5685 ft | 271 kts | 320° |
| 2026-05-04 19:37 | 18.61661 | -69.58692 | 5323 ft | 276 kts | 321° |
| 2026-05-04 19:37 | 18.63166 | -69.59982 | 4975 ft | 282 kts | 321° |
| 2026-05-04 19:37 | 18.64613 | -69.61398 | 4539 ft | 287 kts | 311° |
| 2026-05-04 19:38 | 18.66142 | -69.62761 | 4179 ft | 291 kts | 327° |
| 2026-05-04 19:38 | 18.67861 | -69.63868 | 3848 ft | 296 kts | 329° |
| 2026-05-04 19:38 | 18.69521 | -69.65203 | 3366 ft | 297 kts | 308° |
| 2026-05-04 19:38 | 18.70459 | -69.67071 | 3044 ft | 291 kts | 281° |
| 2026-05-04 19:39 | 18.70506 | -69.69119 | 2976 ft | 268 kts | 252° |
| 2026-05-04 19:39 | 18.69720 | -69.70765 | 3016 ft | 243 kts | 223° |
| 2026-05-04 19:39 | 18.68387 | -69.71682 | 2981 ft | 218 kts | 191° |
| 2026-05-04 19:39 | 18.66919 | -69.71844 | 2983 ft | 209 kts | 179° |
| 2026-05-04 19:40 | 18.65476 | -69.71865 | 2983 ft | 207 kts | 178° |
| 2026-05-04 19:40 | 18.64027 | -69.71893 | 2981 ft | 210 kts | 179° |
| 2026-05-04 19:40 | 18.62556 | -69.72031 | 2972 ft | 218 kts | 194° |
| 2026-05-04 19:40 | 18.61176 | -69.72695 | 2988 ft | 217 kts | 195° |
| 2026-05-04 19:41 | 18.59709 | -69.72744 | 2997 ft | 211 kts | 168° |
| 2026-05-04 19:41 | 18.58272 | -69.72426 | 2958 ft | 208 kts | 166° |
| 2026-05-04 19:41 | 18.56812 | -69.72038 | 2640 ft | 222 kts | 163° |
| 2026-05-04 19:41 | 18.55364 | -69.71519 | 2374 ft | 219 kts | 160° |
| 2026-05-04 19:42 | 18.53957 | -69.70966 | 2079 ft | 210 kts | 161° |
| 2026-05-04 19:42 | 18.52613 | -69.70474 | 1764 ft | 197 kts | 161° |
| 2026-05-04 19:42 | 18.51361 | -69.70008 | 1546 ft | 187 kts | 161° |
| 2026-05-04 19:42 | 18.50187 | -69.69574 | 1261 ft | 173 kts | 161° |
| 2026-05-04 19:43 | 18.49078 | -69.69141 | 883 ft | 163 kts | 158° |
| 2026-05-04 19:43 | 18.48097 | -69.68746 | 866 ft | 142 kts | 161° |
| 2026-05-04 19:43 | 18.47165 | -69.68393 | 522 ft | 147 kts | 162° |
| 2026-05-04 19:43 | 18.46198 | -69.68066 | 453 ft | 146 kts | 162° |
| 2026-05-04 19:44 | 18.45245 | -69.67716 | 241 ft | 146 kts | 162° |
| 2026-05-04 19:44 | 18.44296 | -69.67364 | 95 ft | 144 kts | 162° |
| 2026-05-04 19:44 | 18.43405 | -69.67047 | 67 ft | 120 kts | 161° |
| 2026-05-04 19:44 | 18.42819 | -69.66837 | 69 ft | 58 kts | 160° |
| 2026-05-04 19:45 | 18.42590 | -69.66751 | 67 ft | 34 kts | 160° |
| 2026-05-04 19:45 | 18.42288 | -69.66652 | 64 ft | 47 kts | 174° |
| 2026-05-04 19:45 | 18.42209 | -69.66719 | 59 ft | 5 kts | 288° |
| 2026-05-04 19:45 | 18.42220 | -69.66752 | 65 ft | 5 kts | 290° |
| 2026-05-04 19:46 | 18.42224 | -69.66763 | 67 ft | 0 kts | 290° |
| 2026-05-04 19:47 | 18.42257 | -69.66818 | 64 ft | 22 kts | 315° |
| 2026-05-04 19:47 | 18.42423 | -69.66890 | 58 ft | 25 kts | 346° |
| 2026-05-04 19:47 | 18.42583 | -69.66944 | 67 ft | 23 kts | 341° |
| 2026-05-04 19:47 | 18.42731 | -69.67003 | 68 ft | 22 kts | 338° |
| 2026-05-04 19:48 | 18.42875 | -69.67056 | 66 ft | 21 kts | 342° |
| 2026-05-04 19:48 | 18.42951 | -69.67157 | 66 ft | 20 kts | 277° |
| 2026-05-04 19:48 | 18.42967 | -69.67314 | 62 ft | 20 kts | 277° |
| 2026-05-04 19:48 | 18.42964 | -69.67386 | 64 ft | 9 kts | 255° |
| 2026-05-04 19:49 | 18.42952 | -69.67423 | 65 ft | 0 kts | 247° |
| 2026-05-04 19:49 | 18.42945 | -69.67441 | 64 ft | 0 kts | 250° |